Time;durP1;ratioP1;P1;durP2;ratioP2;P2;SDS_P1;SDS_P2;PMS_P1;PMS_P2;Temp;Humidity;BMP_temperature;BMP_pressure;BME280_temperature;BME280_humidity;BME280_pressure;Samples;Min_cycle;Max_cycle;Signal;HPM_P1;HPM_P2
2022/06/16 00:01:43;;;;;;;13.88;6.63;;;;;;;16.05;66.86;94363.44;5105708;28;20238;-86
2022/06/16 00:04:08;;;;;;;10.80;5.65;;;;;;;16.03;67.26;94362.22;5105694;28;20031;-85
2022/06/16 00:06:34;;;;;;;8.35;5.97;;;;;;;15.99;66.92;94359.41;5105496;28;20115;-86
2022/06/16 00:08:59;;;;;;;9.35;5.82;;;;;;;16.02;66.81;94358.75;5105252;28;20073;-86
2022/06/16 00:11:25;;;;;;;10.73;5.50;;;;;;;15.99;66.85;94364.78;5105565;28;20054;-85
2022/06/16 00:13:51;;;;;;;11.93;6.15;;;;;;;15.94;66.99;94359.63;5105453;28;20323;-87
2022/06/16 00:16:19;;;;;;;8.38;5.22;;;;;;;15.94;67.18;94358.84;5105408;28;20091;-88
2022/06/16 00:18:44;;;;;;;8.77;5.45;;;;;;;15.94;67.37;94362.31;5087495;28;20123;-86
2022/06/16 00:21:10;;;;;;;8.90;5.28;;;;;;;15.93;67.01;94362.66;5105265;28;20089;-86
2022/06/16 00:23:36;;;;;;;8.57;5.57;;;;;;;15.93;67.39;94360.75;5105158;28;20020;-85
2022/06/16 00:26:01;;;;;;;16.10;5.57;;;;;;;15.93;67.51;94354.59;5105194;28;20031;-85
2022/06/16 00:28:27;;;;;;;12.35;5.90;;;;;;;15.88;67.87;94365.56;5105106;28;20222;-85
2022/06/16 00:31:03;;;;;;;7.65;5.72;;;;;;;15.84;68.07;94358.16;5105024;28;20054;-86
2022/06/16 00:33:29;;;;;;;8.50;5.45;;;;;;;15.80;68.16;94359.94;5105111;28;20043;-87
2022/06/16 00:35:55;;;;;;;9.20;5.07;;;;;;;15.79;68.05;94369.13;5104976;28;20215;-86
2022/06/16 00:38:20;;;;;;;9.13;5.00;;;;;;;15.74;68.19;94355.91;5105222;28;20027;-86
2022/06/16 00:40:46;;;;;;;11.88;5.93;;;;;;;15.72;68.30;94358.13;5105379;28;20024;-88
2022/06/16 00:43:12;;;;;;;12.85;5.53;;;;;;;15.70;68.85;94364.94;5104963;28;20027;-90
2022/06/16 00:45:45;;;;;;;9.00;5.13;;;;;;;15.65;68.56;94361.34;5104556;28;20078;-86
2022/06/16 00:48:24;;;;;;;8.40;5.10;;;;;;;15.64;68.58;94361.69;5086985;28;20028;-88
2022/06/16 00:50:58;;;;;;;10.30;5.18;;;;;;;15.60;68.96;94360.78;5086889;28;20024;-87
2022/06/16 00:53:26;;;;;;;9.40;6.13;;;;;;;15.56;69.03;94354.50;5086520;28;20107;-87
2022/06/16 00:55:52;;;;;;;9.15;5.25;;;;;;;15.51;69.05;94352.81;5103901;28;20103;-87
2022/06/16 00:58:20;;;;;;;8.57;5.30;;;;;;;15.47;69.23;94351.91;5104644;28;20020;-86
2022/06/16 01:00:46;;;;;;;11.90;5.82;;;;;;;15.44;69.62;94356.00;5104460;28;20032;-86
2022/06/16 01:03:13;;;;;;;13.50;5.47;;;;;;;15.45;69.53;94354.13;5104517;28;20028;-86
2022/06/16 01:05:39;;;;;;;8.30;5.82;;;;;;;15.40;69.75;94352.41;5104202;28;20066;-86
2022/06/16 01:08:07;;;;;;;8.77;5.75;;;;;;;15.37;69.91;94350.41;5104302;28;20031;-86
2022/06/16 01:10:47;;;;;;;10.38;5.18;;;;;;;15.35;69.97;94341.91;5104227;28;20024;-86
2022/06/16 01:13:43;;;;;;;9.38;5.30;;;;;;;15.34;70.17;94339.53;5103958;28;20016;-86
2022/06/16 01:16:19;;;;;;;10.85;5.82;;;;;;;15.29;70.12;94339.75;5104327;28;20031;-85
2022/06/16 01:19:10;;;;;;;9.30;5.72;;;;;;;15.24;70.39;94349.59;5104196;28;20020;-86
2022/06/16 01:21:56;;;;;;;11.07;5.75;;;;;;;15.23;70.56;94348.00;5103956;28;20027;-85
2022/06/16 01:24:45;;;;;;;9.10;5.40;;;;;;;15.20;70.52;94347.88;5103900;28;20046;-84
2022/06/16 01:27:47;;;;;;;12.38;5.80;;;;;;;15.17;70.30;94343.19;5104056;28;20030;-86
2022/06/16 01:30:16;;;;;;;10.73;5.35;;;;;;;15.10;70.63;94340.22;5103935;28;20023;-86
2022/06/16 01:32:53;;;;;;;12.38;5.97;;;;;;;15.08;70.82;94345.13;5103662;28;20048;-83
2022/06/16 01:35:40;;;;;;;16.45;5.75;;;;;;;15.04;70.83;94343.13;5104010;28;20024;-85
2022/06/16 01:38:30;;;;;;;8.05;5.03;;;;;;;15.05;70.82;94335.84;5102514;28;20053;-83
2022/06/16 01:41:08;;;;;;;13.13;5.72;;;;;;;15.05;71.01;94339.31;5103626;28;20024;-83
2022/06/16 01:43:45;;;;;;;8.05;5.82;;;;;;;14.98;70.95;94324.84;5103498;28;20012;-83
2022/06/16 01:46:16;;;;;;;9.77;6.55;;;;;;;14.99;70.89;94334.50;5103630;28;20020;-86
2022/06/16 01:48:46;;;;;;;12.80;5.85;;;;;;;14.94;70.94;94319.38;5103384;28;20334;-86
2022/06/16 01:51:39;;;;;;;10.52;5.32;;;;;;;14.96;70.80;94321.72;5103622;28;20229;-86
2022/06/16 01:54:19;;;;;;;11.68;5.35;;;;;;;14.89;70.50;94319.56;5103563;28;20035;-86
2022/06/16 01:56:52;;;;;;;12.50;5.63;;;;;;;14.85;70.85;94324.03;5103310;28;20020;-86
2022/06/16 01:59:25;;;;;;;16.77;5.70;;;;;;;14.82;70.99;94327.38;5103420;28;20020;-85
2022/06/16 02:01:59;;;;;;;7.72;5.57;;;;;;;14.83;70.87;94328.94;5103623;28;20062;-83
2022/06/16 02:04:49;;;;;;;12.73;5.72;;;;;;;14.77;71.04;94309.56;5103374;28;20019;-85
2022/06/16 02:07:24;;;;;;;8.52;5.35;;;;;;;14.77;71.22;94330.25;5102418;28;20051;-84
2022/06/16 02:09:54;;;;;;;9.93;5.75;;;;;;;14.75;71.22;94335.16;5103274;28;20039;-85
2022/06/16 02:15:36;;;;;;;9.40;6.07;;;;;;;14.71;71.10;94331.56;5103291;28;20043;-85
2022/06/16 02:18:10;;;;;;;9.90;6.85;;;;;;;14.69;71.20;94329.19;5102637;28;20154;-85
2022/06/16 02:21:00;;;;;;;13.23;6.47;;;;;;;14.70;71.49;94335.34;5102925;28;20249;-85
2022/06/16 02:23:26;;;;;;;10.07;5.85;;;;;;;14.63;72.02;94342.03;5103127;28;20024;-84
2022/06/16 02:25:55;;;;;;;13.02;7.13;;;;;;;14.59;72.37;94334.94;5103164;28;20091;-84
2022/06/16 02:28:21;;;;;;;9.75;7.07;;;;;;;14.58;72.51;94339.53;5103179;28;20028;-84
2022/06/16 02:31:11;;;;;;;10.75;6.95;;;;;;;14.58;73.02;94328.03;5102978;28;20054;-84
2022/06/16 02:33:52;;;;;;;8.27;6.30;;;;;;;14.55;73.27;94342.84;5102845;28;20031;-84
2022/06/16 02:36:32;;;;;;;9.55;7.28;;;;;;;14.56;72.87;94344.44;5102866;28;20322;-84
2022/06/16 02:39:20;;;;;;;10.65;6.72;;;;;;;14.56;73.41;94349.03;5103110;28;20043;-84
2022/06/16 02:41:48;;;;;;;15.02;7.78;;;;;;;14.51;73.57;94357.22;5102754;28;20024;-84
2022/06/16 02:44:44;;;;;;;13.65;7.60;;;;;;;14.46;73.29;94350.16;5102703;28;20369;-84
2022/06/16 02:47:48;;;;;;;10.45;6.57;;;;;;;14.45;73.58;94356.63;5102807;28;20249;-84
2022/06/16 02:50:38;;;;;;;14.57;6.78;;;;;;;14.43;73.75;94353.47;5102803;28;20028;-86
2022/06/16 02:53:28;;;;;;;14.23;7.57;;;;;;;14.44;73.71;94360.41;5082240;28;20032;-85
2022/06/16 02:56:04;;;;;;;8.48;6.82;;;;;;;14.42;73.39;94352.69;5102929;28;20249;-85
2022/06/16 02:58:33;;;;;;;11.25;6.70;;;;;;;14.44;73.46;94361.19;5102803;28;20016;-86
2022/06/16 03:01:01;;;;;;;10.73;7.95;;;;;;;14.49;74.06;94368.28;5102520;28;20024;-85
2022/06/16 03:03:33;;;;;;;13.93;7.78;;;;;;;14.47;74.24;94359.78;5102645;28;20108;-85
2022/06/16 03:05:59;;;;;;;13.77;8.30;;;;;;;14.48;74.50;94365.91;5102638;28;20031;-84
2022/06/16 03:08:31;;;;;;;12.45;8.02;;;;;;;14.52;74.36;94364.94;5102623;28;20391;-85
2022/06/16 03:10:58;;;;;;;10.68;7.60;;;;;;;14.54;74.50;94357.34;5102588;28;20035;-85
2022/06/16 03:13:33;;;;;;;15.98;8.20;;;;;;;14.54;74.55;94364.63;5102667;28;20024;-85
2022/06/16 03:16:00;;;;;;;15.35;7.53;;;;;;;14.51;74.60;94358.03;5102585;28;20031;-84
2022/06/16 03:18:26;;;;;;;11.85;8.55;;;;;;;14.51;74.33;94355.34;5102530;28;20031;-88
2022/06/16 03:20:53;;;;;;;14.02;8.43;;;;;;;14.51;74.64;94366.06;5106955;28;20024;-89
2022/06/16 03:23:19;;;;;;;9.55;7.50;;;;;;;14.55;74.83;94361.63;5088937;28;20020;-88
2022/06/16 03:25:45;;;;;;;13.75;8.00;;;;;;;14.57;75.18;94362.13;5106723;28;20043;-88
2022/06/16 03:28:12;;;;;;;14.00;7.70;;;;;;;14.62;74.68;94353.06;5106536;28;20028;-88
2022/06/16 03:30:39;;;;;;;12.63;7.60;;;;;;;14.62;74.69;94350.41;5106345;28;20100;-86
2022/06/16 03:33:07;;;;;;;13.20;8.93;;;;;;;14.69;74.76;94352.56;5106116;28;20023;-87
2022/06/16 03:35:32;;;;;;;12.95;9.15;;;;;;;14.68;74.54;94359.03;5106342;28;20020;-85
2022/06/16 03:38:08;;;;;;;12.32;9.25;;;;;;;14.70;74.14;94359.50;5106137;28;20020;-85
2022/06/16 03:40:35;;;;;;;13.85;9.25;;;;;;;14.75;73.97;94352.03;5106006;28;20032;-84
2022/06/16 03:43:00;;;;;;;17.10;9.30;;;;;;;14.78;74.11;94339.88;5105873;28;20101;-84
2022/06/16 03:45:26;;;;;;;12.85;8.75;;;;;;;14.84;74.04;94351.97;5105613;28;20334;-83
2022/06/16 03:47:51;;;;;;;16.55;9.43;;;;;;;14.87;73.78;94356.69;5106038;28;20069;-84
2022/06/16 03:50:18;;;;;;;14.02;9.00;;;;;;;14.89;73.68;94351.78;5105895;28;20353;-87
2022/06/16 03:52:44;;;;;;;13.30;8.43;;;;;;;14.93;73.75;94351.91;5105914;28;20046;-87
2022/06/16 03:55:10;;;;;;;12.73;8.77;;;;;;;14.97;73.61;94345.53;5105835;28;20311;-87
2022/06/16 03:57:36;;;;;;;18.10;9.60;;;;;;;15.00;73.71;94347.59;5105835;28;20227;-87
2022/06/16 04:00:01;;;;;;;23.63;10.32;;;;;;;15.01;73.43;94346.47;5105812;28;20031;-88
2022/06/16 04:02:27;;;;;;;17.98;10.75;;;;;;;15.00;73.28;94360.19;5105570;28;20051;-87
2022/06/16 04:04:52;;;;;;;13.60;9.00;;;;;;;14.97;72.83;94355.50;5105634;28;20059;-83
2022/06/16 04:07:18;;;;;;;14.48;8.57;;;;;;;14.96;73.03;94354.72;5105494;28;20086;-83
2022/06/16 04:09:43;;;;;;;23.13;16.25;;;;;;;14.98;73.01;94359.75;5105388;28;20069;-83
2022/06/16 04:12:09;;;;;;;21.85;9.02;;;;;;;14.94;72.91;94362.31;5105434;28;20020;-83
2022/06/16 04:14:34;;;;;;;17.63;8.77;;;;;;;14.90;73.32;94350.66;5105145;28;20028;-83
2022/06/16 04:17:00;;;;;;;16.50;8.52;;;;;;;14.96;73.32;94370.03;5105293;28;20020;-84
2022/06/16 04:19:25;;;;;;;18.90;9.70;;;;;;;14.98;73.60;94365.91;5105345;28;20031;-83
2022/06/16 04:21:54;;;;;;;14.63;8.90;;;;;;;15.11;73.29;94357.91;5105302;28;20307;-83
2022/06/16 04:24:21;;;;;;;12.18;8.15;;;;;;;15.14;72.65;94359.94;5105102;28;20019;-83
2022/06/16 04:26:51;;;;;;;13.70;8.07;;;;;;;15.16;72.61;94369.25;5104991;28;20055;-83
2022/06/16 04:29:17;;;;;;;13.38;8.75;;;;;;;15.22;72.57;94356.38;5086984;28;20023;-83
2022/06/16 04:31:43;;;;;;;13.93;7.93;;;;;;;15.35;72.42;94363.38;5104067;28;20039;-83
2022/06/16 04:34:09;;;;;;;23.50;13.45;;;;;;;15.37;71.97;94358.47;5104196;28;20032;-83
2022/06/16 04:36:35;;;;;;;17.98;11.52;;;;;;;15.44;72.01;94358.69;5104946;28;20083;-84
2022/06/16 04:39:00;;;;;;;19.80;11.55;;;;;;;15.54;71.30;94356.72;5104842;28;20020;-88
2022/06/16 04:41:26;;;;;;;23.50;11.27;;;;;;;15.52;71.52;94361.66;5087162;28;20293;-86
2022/06/16 04:43:52;;;;;;;19.17;11.88;;;;;;;15.57;71.92;94364.09;5104755;28;20036;-87
2022/06/16 04:46:19;;;;;;;18.52;11.95;;;;;;;15.59;71.81;94353.81;5105010;28;20028;-88
2022/06/16 04:48:45;;;;;;;22.20;10.60;;;;;;;15.60;71.80;94358.09;5104607;28;20016;-84
2022/06/16 04:51:12;;;;;;;19.67;10.18;;;;;;;15.66;71.95;94362.13;5104812;28;20091;-87
2022/06/16 04:53:38;;;;;;;14.95;9.85;;;;;;;15.68;72.09;94351.06;5104611;28;20077;-86
2022/06/16 04:56:05;;;;;;;15.45;9.52;;;;;;;15.68;71.94;94365.25;5104554;28;20087;-87
2022/06/16 04:58:31;;;;;;;22.00;10.10;;;;;;;15.69;71.97;94363.34;5104777;28;20027;-87
2022/06/16 05:00:57;;;;;;;14.77;10.90;;;;;;;15.73;72.00;94358.91;5104819;28;20024;-86
2022/06/16 05:03:25;;;;;;;20.27;9.63;;;;;;;15.77;71.93;94363.31;5104492;28;20023;-87
2022/06/16 05:05:51;;;;;;;17.02;9.70;;;;;;;15.88;71.54;94360.97;5104385;28;20023;-86
2022/06/16 05:08:17;;;;;;;18.77;10.10;;;;;;;15.96;71.33;94362.00;5104294;28;20020;-85
2022/06/16 05:10:46;;;;;;;21.27;10.50;;;;;;;16.02;71.88;94366.03;5103935;28;20020;-86
2022/06/16 05:13:11;;;;;;;21.98;12.52;;;;;;;16.05;71.61;94360.75;5104150;28;20318;-87
2022/06/16 05:15:36;;;;;;;15.25;11.93;;;;;;;16.13;71.46;94367.16;5104061;28;20054;-86
2022/06/16 05:18:03;;;;;;;21.73;11.25;;;;;;;16.20;71.48;94366.59;5104120;28;20035;-86
2022/06/16 05:20:28;;;;;;;19.60;12.23;;;;;;;16.27;71.94;94356.06;5104204;28;20023;-87
2022/06/16 05:22:53;;;;;;;19.25;11.80;;;;;;;16.33;71.64;94353.94;5104071;28;20087;-85
2022/06/16 05:25:19;;;;;;;16.48;11.85;;;;;;;16.44;71.74;94355.03;5103693;28;20020;-86
2022/06/16 05:27:44;;;;;;;23.00;12.00;;;;;;;16.60;70.62;94361.28;5104023;28;20024;-88
2022/06/16 05:30:11;;;;;;;20.52;12.35;;;;;;;16.74;70.97;94362.84;5104340;28;20036;-85
2022/06/16 05:32:36;;;;;;;22.77;13.10;;;;;;;16.79;70.90;94366.09;5103750;28;20024;-85
2022/06/16 05:35:03;;;;;;;19.30;12.10;;;;;;;16.95;71.01;94360.81;5103757;28;20035;-82
2022/06/16 05:37:31;;;;;;;20.70;11.85;;;;;;;17.12;70.53;94370.53;5103926;28;20024;-81
2022/06/16 05:39:56;;;;;;;22.52;11.73;;;;;;;17.22;70.19;94372.75;5103858;28;20034;-81
2022/06/16 05:42:22;;;;;;;21.20;12.32;;;;;;;17.35;68.61;94378.09;5103371;28;20087;-81
2022/06/16 05:44:47;;;;;;;25.77;12.13;;;;;;;17.41;67.92;94372.09;5103508;28;20257;-81
2022/06/16 05:47:13;;;;;;;20.05;12.20;;;;;;;17.45;67.77;94370.28;5103511;28;20023;-80
2022/06/16 05:49:39;;;;;;;26.20;12.68;;;;;;;17.47;68.79;94378.03;5103485;28;20210;-83
2022/06/16 05:52:08;;;;;;;21.13;12.23;;;;;;;17.59;67.65;94383.38;5103650;28;20310;-82
2022/06/16 05:54:34;;;;;;;23.83;12.00;;;;;;;17.64;67.39;94371.53;5103775;28;20024;-90
2022/06/16 05:56:59;;;;;;;25.98;12.73;;;;;;;17.67;66.79;94381.66;5105197;28;20023;-81
2022/06/16 05:59:25;;;;;;;23.85;12.70;;;;;;;17.66;67.00;94374.69;5103559;28;20028;-83
2022/06/16 06:01:50;;;;;;;25.35;13.85;;;;;;;17.73;67.81;94379.50;5103441;28;20035;-80
2022/06/16 06:04:15;;;;;;;34.08;15.43;;;;;;;17.89;68.93;94366.03;5085037;28;20098;-73
2022/06/16 06:06:41;;;;;;;25.23;13.48;;;;;;;18.01;67.81;94379.44;5102992;28;20050;-74
2022/06/16 06:17:21;;;;;;;27.08;15.65;;;;;;;18.35;66.14;94371.78;5102931;28;20035;-75
2022/06/16 06:19:47;;;;;;;23.92;13.75;;;;;;;18.31;65.46;94377.09;5102625;28;20279;-74
2022/06/16 06:22:16;;;;;;;30.45;15.30;;;;;;;18.36;66.45;94373.34;5102505;28;20031;-74
2022/06/16 06:24:44;;;;;;;33.53;15.75;;;;;;;18.38;67.06;94377.28;5102564;28;20059;-74
2022/06/16 06:27:26;;;;;;;28.00;15.70;;;;;;;18.49;66.61;94385.63;5102654;28;20077;-74
2022/06/16 06:29:52;;;;;;;;;;;;;;;18.57;66.11;94379.25;5103152;28;20050;-73
2022/06/16 06:32:20;;;;;;;38.08;16.83;;;;;;;18.62;66.53;94384.41;5102653;28;19904;-74
2022/06/16 06:34:45;;;;;;;30.70;16.25;;;;;;;18.74;67.47;94377.31;5102476;28;20099;-74
2022/06/16 06:37:14;;;;;;;27.45;17.17;;;;;;;18.89;67.19;94373.81;5102462;28;20050;-73
2022/06/16 06:39:39;;;;;;;30.02;16.30;;;;;;;19.02;66.63;94380.66;5102638;28;20020;-75
2022/06/16 06:42:05;;;;;;;37.10;18.77;;;;;;;19.06;66.58;94385.34;5102428;28;20026;-73
2022/06/16 06:44:32;;;;;;;31.00;16.73;;;;;;;19.19;65.84;94389.47;5102457;28;20070;-75
2022/06/16 06:46:57;;;;;;;27.50;16.85;;;;;;;19.33;65.22;94381.66;5102597;28;20081;-85
2022/06/16 06:49:23;;;;;;;31.40;15.00;;;;;;;19.58;64.68;94376.75;5102887;28;20382;-88
2022/06/16 06:51:48;;;;;;;29.27;16.60;;;;;;;19.80;63.52;94382.56;5102389;28;20099;-87
2022/06/16 06:54:14;;;;;;;33.25;16.33;;;;;;;19.90;63.20;94376.56;5102814;28;20035;-91
2022/06/16 06:56:40;;;;;;;33.63;15.48;;;;;;;20.09;62.98;94377.66;5088722;28;20218;-85
2022/06/16 06:59:09;;;;;;;29.67;16.65;;;;;;;20.17;61.44;94379.34;5107381;28;20028;-85
2022/06/16 07:01:35;;;;;;;30.05;15.68;;;;;;;20.31;61.54;94389.63;5106849;28;20023;-88
2022/06/16 07:04:02;;;;;;;26.48;15.50;;;;;;;20.45;61.65;94379.03;5106878;28;20249;-91
2022/06/16 07:06:28;;;;;;;31.58;15.43;;;;;;;20.57;60.71;94381.53;5107325;28;20028;-86
2022/06/16 07:08:53;;;;;;;24.70;16.38;;;;;;;20.50;60.85;94370.63;5107524;28;20031;-92
2022/06/16 07:11:19;;;;;;;26.20;14.60;;;;;;;20.61;61.00;94379.69;5107131;28;20032;-94
2022/06/16 07:13:45;;;;;;;29.95;15.70;;;;;;;20.75;60.20;94378.34;5106353;28;20050;-86
2022/06/16 07:16:11;;;;;;;25.23;16.17;;;;;;;20.83;60.09;94377.31;5106606;28;20043;-83
2022/06/16 07:18:37;;;;;;;27.13;15.52;;;;;;;20.81;60.27;94374.19;5107090;28;20042;-91
2022/06/16 07:21:04;;;;;;;30.55;15.30;;;;;;;20.90;59.70;94384.75;5106928;28;20027;-87
2022/06/16 07:23:30;;;;;;;23.75;15.02;;;;;;;20.82;59.77;94375.75;5088343;28;20019;-89
2022/06/16 07:25:55;;;;;;;30.33;15.40;;;;;;;20.71;60.37;94369.41;5106154;28;20016;-86
2022/06/16 07:28:21;;;;;;;27.10;14.90;;;;;;;20.80;60.33;94378.03;5106275;28;20031;-92
2022/06/16 07:30:47;;;;;;;27.48;16.63;;;;;;;20.79;60.03;94371.84;5106278;28;20020;-88
2022/06/16 07:33:12;;;;;;;24.38;15.27;;;;;;;20.87;60.59;94378.16;5106346;28;20104;-86
2022/06/16 07:35:41;;;;;;;25.27;13.90;;;;;;;20.84;60.27;94365.31;5087873;28;20336;-87
2022/06/16 07:38:08;;;;;;;28.48;15.18;;;;;;;20.77;60.43;94367.94;5106101;28;20016;-85
2022/06/16 07:40:34;;;;;;;26.45;15.75;;;;;;;20.66;60.46;94373.22;5105989;28;20016;-84
2022/06/16 07:42:59;;;;;;;31.02;17.13;;;;;;;20.64;61.69;94378.97;5106138;28;20019;-85
2022/06/16 07:45:27;;;;;;;27.98;17.15;;;;;;;20.63;61.60;94371.22;5106061;28;20043;-91
2022/06/16 07:47:54;;;;;;;27.63;16.77;;;;;;;20.63;60.74;94369.28;5106587;28;20034;-84
2022/06/16 07:50:20;;;;;;;27.05;17.75;;;;;;;20.57;60.61;94357.16;5105988;28;20016;-90
2022/06/16 07:52:46;;;;;;;29.15;16.85;;;;;;;20.54;60.41;94368.75;5106005;28;20023;-83
2022/06/16 07:55:12;;;;;;;23.00;15.90;;;;;;;20.62;60.37;94372.38;5105963;28;20336;-87
2022/06/16 07:57:43;;;;;;;21.92;16.05;;;;;;;20.64;59.96;94368.16;5106151;28;20024;-88
2022/06/16 08:00:11;;;;;;;23.50;15.80;;;;;;;20.72;60.05;94365.53;5105708;28;20061;-87
2022/06/16 08:02:37;;;;;;;23.95;16.30;;;;;;;20.76;60.51;94371.78;5088385;28;20016;-90
2022/06/16 08:05:03;;;;;;;33.75;16.42;;;;;;;20.72;59.16;94366.34;5105481;28;20034;-87
2022/06/16 08:07:29;;;;;;;26.55;15.85;;;;;;;20.86;58.94;94376.56;5105483;28;20027;-88
2022/06/16 08:09:54;;;;;;;29.83;17.48;;;;;;;21.04;59.21;94366.78;5105695;28;20030;-89
2022/06/16 08:12:20;;;;;;;24.33;15.95;;;;;;;21.23;58.23;94370.50;5087732;28;20012;-88
2022/06/16 08:14:47;;;;;;;29.00;16.27;;;;;;;21.46;57.46;94369.63;5105586;28;20020;-88
2022/06/16 08:17:24;;;;;;;25.23;14.75;;;;;;;21.61;55.38;94372.13;5087328;28;20088;-87
2022/06/16 08:19:51;;;;;;;19.40;14.20;;;;;;;21.68;55.38;94371.44;5105243;28;20026;-88
2022/06/16 08:22:16;;;;;;;24.05;16.15;;;;;;;21.66;55.00;94371.03;5105259;28;20042;-87
2022/06/16 08:24:42;;;;;;;28.70;16.70;;;;;;;21.78;54.80;94373.47;5105055;28;20020;-87
2022/06/16 08:27:08;;;;;;;24.20;15.27;;;;;;;21.87;53.62;94383.25;5105225;28;20026;-88
2022/06/16 08:32:39;;;;;;;22.85;15.73;;;;;;;21.90;53.61;94391.44;5073654;28;20069;-86
2022/06/16 08:35:05;;;;;;;19.38;14.77;;;;;;;22.04;53.84;94377.19;5104153;28;20032;-86
2022/06/16 08:37:31;;;;;;;20.13;13.82;;;;;;;22.18;52.72;94381.97;5087143;28;20357;-85
2022/06/16 08:39:56;;;;;;;18.70;13.82;;;;;;;22.20;51.14;94376.97;5105919;28;20024;-95
2022/06/16 08:42:41;;;;;;;24.88;14.23;;;;;;;22.42;51.05;94375.25;5105485;28;20024;-87
2022/06/16 08:45:32;;;;;;;33.50;14.75;;;;;;;22.62;50.43;94373.84;5104796;28;20052;-87
2022/06/16 08:48:07;;;;;;;22.13;14.60;;;;;;;22.88;50.44;94380.22;5086441;28;20077;-86
2022/06/16 08:50:54;;;;;;;20.80;13.70;;;;;;;22.97;51.11;94377.94;5104849;28;20024;-86
2022/06/16 08:53:49;;;;;;;24.40;15.50;;;;;;;22.95;50.40;94374.81;5104746;28;20028;-86
2022/06/16 08:56:22;;;;;;;25.48;14.50;;;;;;;22.96;49.57;94370.97;5104673;28;20090;-83
2022/06/16 08:59:06;;;;;;;25.50;14.00;;;;;;;23.05;48.81;94373.38;5104375;28;20028;-86
2022/06/16 09:01:38;;;;;;;19.25;13.45;;;;;;;23.23;48.61;94370.75;5104559;28;20031;-85
2022/06/16 09:04:20;;;;;;;19.23;13.43;;;;;;;23.39;48.58;94365.75;5104312;28;20027;-86
2022/06/16 09:06:45;;;;;;;17.48;12.50;;;;;;;23.58;48.06;94364.66;5104460;28;20024;-85
2022/06/16 09:10:14;;;;;;;19.20;13.60;;;;;;;23.76;46.80;94370.16;5104397;28;20062;-83
2022/06/16 09:12:28;;;;;;;13.40;10.65;;;;;;;23.89;46.06;94369.81;5104489;28;20341;-85
2022/06/16 09:15:13;;;;;;;16.45;11.77;;;;;;;23.96;45.97;94364.41;5104087;28;20028;-85
2022/06/16 09:17:48;;;;;;;16.65;11.85;;;;;;;23.94;47.06;94362.06;5103680;28;20023;-87
2022/06/16 09:20:29;;;;;;;22.33;12.20;;;;;;;23.90;46.71;94358.56;5104657;28;20034;-92
2022/06/16 09:23:28;;;;;;;16.50;12.88;;;;;;;24.00;46.57;94351.56;5086227;28;20020;-85
2022/06/16 09:26:31;;;;;;;16.98;12.00;;;;;;;23.85;44.93;94361.63;5104449;28;20259;-84
2022/06/16 09:29:20;;;;;;;18.25;10.60;;;;;;;23.83;44.54;94353.88;5067274;28;20157;-88
2022/06/16 09:31:57;;;;;;;13.55;10.25;;;;;;;23.86;43.94;94354.28;5104986;28;20032;-88
2022/06/16 09:34:29;;;;;;;13.73;8.68;;;;;;;23.72;41.60;94347.59;5104275;28;20040;-85
2022/06/16 09:37:02;;;;;;;14.32;9.90;;;;;;;23.70;42.48;94344.47;5085789;28;20024;-81
2022/06/16 09:39:37;;;;;;;15.48;10.80;;;;;;;23.76;43.69;94340.22;5086030;28;20047;-87
2022/06/16 09:45:01;;;;;;;14.98;9.68;;;;;;;24.17;43.44;94342.63;5103822;28;20055;-84
2022/06/16 09:47:32;;;;;;;14.48;10.27;;;;;;;24.32;42.02;94339.91;5103933;28;20024;-84
2022/06/16 09:50:07;;;;;;;15.85;10.27;;;;;;;24.53;42.72;94334.50;5103811;28;20036;-84
2022/06/16 09:52:48;;;;;;;14.20;10.57;;;;;;;24.34;41.21;94322.03;5085662;28;20337;-85
2022/06/16 09:55:26;;;;;;;15.25;11.52;;;;;;;24.35;43.19;94323.56;5103732;28;20322;-81
2022/06/16 09:58:00;;;;;;;16.15;11.55;;;;;;;24.65;42.63;94330.59;5103753;28;20020;-87
2022/06/16 10:00:27;;;;;;;17.48;10.77;;;;;;;24.75;41.55;94331.72;5085580;28;20015;-86
2022/06/16 10:02:57;;;;;;;22.40;12.32;;;;;;;24.79;41.88;94324.31;5103559;28;20027;-85
2022/06/16 10:05:43;;;;;;;19.23;12.23;;;;;;;24.93;41.42;94326.25;5085119;28;20024;-84
2022/06/16 10:08:22;;;;;;;27.35;12.55;;;;;;;24.91;41.70;94334.03;5085379;28;20262;-84
2022/06/16 10:11:05;;;;;;;20.10;11.40;;;;;;;24.88;41.36;94329.38;5102152;28;20027;-83
2022/06/16 10:14:01;;;;;;;13.48;10.75;;;;;;;24.82;41.86;94318.09;5103054;28;20039;-84
2022/06/16 10:16:50;;;;;;;14.45;11.30;;;;;;;24.83;41.82;94322.34;5103222;28;20015;-84
2022/06/16 10:19:16;;;;;;;20.17;11.57;;;;;;;24.82;40.49;94320.81;5103277;28;20202;-84
2022/06/16 10:21:42;;;;;;;21.13;11.32;;;;;;;24.57;40.04;94318.16;5103056;28;20326;-83
2022/06/16 10:24:08;;;;;;;15.68;10.80;;;;;;;24.40;41.12;94314.22;5102788;28;20038;-84
2022/06/16 10:26:35;;;;;;;12.73;9.05;;;;;;;24.36;41.57;94316.97;5103262;28;20016;-84
2022/06/16 10:29:04;;;;;;;15.75;10.38;;;;;;;24.19;41.58;94317.75;5102415;28;20345;-84
2022/06/16 10:31:38;;;;;;;16.10;12.10;;;;;;;24.09;45.86;94319.28;5102927;28;20019;-86
2022/06/16 10:34:16;;;;;;;14.43;10.32;;;;;;;24.00;42.13;94316.19;5102908;28;20247;-85
2022/06/16 10:36:48;;;;;;;13.40;10.98;;;;;;;24.08;43.34;94304.13;5102902;28;20308;-85
2022/06/16 10:39:34;;;;;;;17.42;10.77;;;;;;;24.13;43.32;94309.19;5102666;28;20020;-85
2022/06/16 10:42:23;;;;;;;24.23;11.88;;;;;;;24.14;42.66;94299.84;5102951;28;20040;-83
2022/06/16 10:44:53;;;;;;;15.95;10.68;;;;;;;24.06;41.51;94300.22;5102925;28;20047;-86
2022/06/16 10:47:50;;;;;;;18.60;10.68;;;;;;;24.11;42.26;94297.13;5102792;28;20118;-85
2022/06/16 10:50:23;;;;;;;14.13;11.32;;;;;;;24.28;42.79;94292.84;5069703;28;20042;-85
2022/06/16 10:53:03;;;;;;;15.23;12.20;;;;;;;24.48;42.35;94293.97;5102682;28;20065;-86
2022/06/16 10:55:37;;;;;;;15.32;11.45;;;;;;;24.74;42.25;94300.19;5102720;28;20336;-85
2022/06/16 10:58:15;;;;;;;17.05;11.18;;;;;;;24.90;40.50;94295.09;5102749;28;20042;-84
2022/06/16 11:00:41;;;;;;;17.48;11.52;;;;;;;24.99;40.17;94295.47;5102407;28;20020;-85
2022/06/16 11:03:17;;;;;;;16.33;11.20;;;;;;;25.05;40.57;94295.81;5102938;28;20019;-84
2022/06/16 11:05:57;;;;;;;13.82;11.25;;;;;;;25.18;40.33;94301.63;5102572;28;20047;-84
2022/06/16 11:08:31;;;;;;;18.13;11.70;;;;;;;25.24;41.94;94294.63;5102607;28;20256;-85
2022/06/16 11:10:59;;;;;;;16.27;10.93;;;;;;;25.31;42.13;94285.63;5102492;28;20314;-85
2022/06/16 11:13:35;;;;;;;16.70;10.60;;;;;;;25.45;41.44;94290.25;5102491;28;20317;-85
2022/06/16 11:16:07;;;;;;;14.95;11.30;;;;;;;25.71;41.57;94286.97;5102655;28;20258;-85
2022/06/16 11:18:33;;;;;;;13.52;10.50;;;;;;;25.86;39.80;94287.63;5102643;28;20024;-84
2022/06/16 11:21:10;;;;;;;13.80;9.93;;;;;;;25.80;38.08;94284.56;5102261;28;20031;-84
2022/06/16 11:23:44;;;;;;;14.77;10.25;;;;;;;25.89;38.48;94275.13;5102357;28;20016;-83
2022/06/16 11:26:15;;;;;;;18.50;10.02;;;;;;;26.02;38.79;94281.72;5102562;28;20020;-83
2022/06/16 11:29:10;;;;;;;13.45;8.80;;;;;;;26.20;37.74;94276.09;5102175;28;20024;-82
2022/06/16 11:31:44;;;;;;;13.63;8.73;;;;;;;26.27;35.44;94276.03;5102772;28;20024;-84
2022/06/16 11:34:18;;;;;;;13.52;9.85;;;;;;;26.44;36.78;94271.59;5102095;28;20028;-82
2022/06/16 11:37:09;;;;;;;13.02;9.00;;;;;;;26.50;36.11;94277.38;5084807;28;20162;-95
2022/06/16 11:40:19;;;;;;;15.20;9.13;;;;;;;26.51;35.81;94268.78;5102726;28;20326;-88
2022/06/16 11:43:08;;;;;;;15.43;10.50;;;;;;;26.56;37.91;94262.91;5101896;28;20055;-85
2022/06/16 11:45:53;;;;;;;14.75;9.93;;;;;;;26.82;37.15;94268.91;5105959;28;20054;-82
2022/06/16 11:48:42;;;;;;;14.90;9.27;;;;;;;27.21;35.60;94273.13;5105801;28;20192;-83
2022/06/16 11:51:15;;;;;;;13.77;9.00;;;;;;;27.60;35.65;94274.63;5105742;28;20020;-82
2022/06/16 11:53:59;;;;;;;12.88;9.02;;;;;;;27.93;33.95;94264.00;5107619;28;20016;-88
2022/06/16 11:56:49;;;;;;;15.35;10.55;;;;;;;28.15;34.25;94267.97;5108419;28;20035;-83
2022/06/16 11:59:36;;;;;;;12.98;8.43;;;;;;;28.28;31.40;94259.16;5108714;28;20020;-92
2022/06/16 12:02:10;;;;;;;13.57;9.23;;;;;;;28.24;32.67;94258.44;5108634;28;20024;-81